Weather observations for the past three days for
West Point, Middle Peninsula Regional Airport
Imperial (Metric)
Date Time (edt) Wind (mph) Vis. (mi.) Weather Sky Cond. Temperature (ºF) Relative Humidity Wind Chill (°F) Heat Index (°F) Pressure Precipitation (in)
Air Dwpt 6 hour altimeter (in) sea level (mb) 1 hr 3 hr 6 hr
Max. Min.
04 15:35 SW 12 G 17 10.00 Fair CLR 76.5 34.2 21% 77 29.92 0.0
04 15:15 SW 7 10.00 Fair CLR 75.2 36.5 25% 77 29.92 0.0
04 14:55 SW 8 10.00 Fair CLR 74.8 35.4 24% 29.93 0.0
04 14:35 SW 6 10.00 Fair CLR 73.4 34.7 24% 29.94 0.0
04 14:15 SW 7 G 17 10.00 Fair CLR 73.4 34.3 24% 29.94 0.0
04 13:55 S 10 10.00 Fair CLR 75.2 34.2 75.6 55.2 22% 76 29.95 0.0
04 13:35 SW 8 10.00 Fair CLR 74.7 34.5 23% 29.96 0.0
04 13:15 S 10 G 17 10.00 Fair CLR 73.6 34.3 24% 29.97 0.0
04 12:55 SW 6 10.00 Fair CLR 73.6 35.6 25% 29.97 0.0
04 12:35 SW 9 10.00 Fair CLR 72 35.2 26% 29.97 0.0
04 12:15 SW 7 10.00 Fair CLR 71.4 36.9 28% 29.98 0.0
04 11:55 SW 7 10.00 Fair CLR 70.3 38.8 32% 29.99 0.0
04 11:35 W 8 10.00 Fair CLR 69.6 40.1 34% 29.99 0.0
04 11:15 S 8 7.00 Fair CLR 68 40.1 36% 30 0.0
04 10:55 SW 7 7.00 Fair CLR 66.6 40.3 38% 30 0.0
04 10:35 SW 6 7.00 Fair CLR 65.3 41.4 42% 30 0.0
04 10:15 W 6 7.00 Fair CLR 63.5 40.3 43% 30 0.0
04 09:55 SW 5 7.00 Fair CLR 62.4 40.8 45% 30.01 0.0
04 09:35 W 6 10.00 Fair CLR 61.5 41.4 48% 30.01 0.0
04 09:15 W 9 7.00 Fair CLR 59.7 40.1 48% 30.01 0.0
04 08:55 W 9 5.00 Fair CLR 58.3 40.6 52% 30.02 0.0
04 08:35 W 10 7.00 Fair CLR 57.6 40.8 54% 30.02 0.0
04 08:15 SW 7 5.00 Partly Cloudy SCT120 56.8 41.5 57% 30.02 0.0
04 07:55 S 6 7.00 Partly Cloudy SCT120 55.4 41.7 55.4 48.2 60% 30.02 0.0
04 07:35 Calm 7.00 Fair CLR 52.5 43 70% 30.02 0.0
04 07:15 E 3 5.00 Partly Cloudy SCT100 SCT120 51.1 41.2 69% 30.02 0.0
04 06:55 E 3 7.00 Overcast OVC100 50.7 41.5 71% 30.03 0.0
04 06:35 Calm 7.00 Overcast OVC110 48.9 41.9 77% 30.03 0.0
04 06:15 Calm 7.00 Mostly Cloudy BKN120 49.3 41 73% 30.03 0.0
04 05:55 SE 3 10.00 Partly Cloudy SCT120 49.6 39.7 69% 30.03 0.0
04 05:35 SE 3 10.00 Fair CLR 50.9 40.1 67% 30.03 0.0
04 05:15 SE 3 10.00 Partly Cloudy SCT110 50.9 39.7 66% 30.04 0.0
04 04:55 SE 3 10.00 Mostly Cloudy BKN110 50.9 39.6 65% 30.04 0.0
04 04:35 SE 5 10.00 Partly Cloudy SCT110 51.8 40.1 65% 30.05 0.0
04 04:15 S 5 7.00 Partly Cloudy SCT110 51.4 40.5 66% 30.04 0.0
04 03:55 S 5 7.00 Partly Cloudy SCT120 51.3 40.6 67% 30.04 0.0
04 03:35 S 6 10.00 Partly Cloudy SCT120 51.4 40.6 67% 30.05 0.0
04 03:15 S 7 10.00 Mostly Cloudy BKN120 51.4 40.5 66% 30.05 0.0
04 02:55 S 6 7.00 Mostly Cloudy BKN120 51.3 41.7 70% 30.05 0.0
04 02:35 S 7 10.00 Partly Cloudy SCT120 50.7 43 75% 30.05 0.0
04 02:15 S 6 10.00 Partly Cloudy SCT120 50.9 43.2 75% 30.05 0.0
04 01:55 S 8 7.00 Fair CLR 50.7 43.2 55.8 37.9 75% 30.05 0.0
04 01:35 S 8 7.00 Fair CLR 51.3 42.8 73% 30.05 0.0
04 01:15 S 8 10.00 Fair CLR 51.1 42.6 73% 30.05 0.0
04 00:55 SE 6 7.00 Fair CLR 44.4 38.3 79% 42 30.05 0.0
04 00:35 SE 3 10.00 Fair CLR 41.4 36.1 82% 30.05 0.0
04 00:15 Calm 7.00 Fair CLR 42.3 35.1 76% 30.04 0.0
03 23:55 Calm 10.00 Fair CLR 39 34.7 85% 30.04 0.0
03 23:35 Calm 7.00 Fair CLR 39.7 34.9 83% 30.04 0.0
03 23:15 Calm 7.00 Fair CLR 39.9 34.9 82% 30.04 0.0
03 22:55 Calm 10.00 Fair CLR 41 35.4 81% 30.04 0.0
03 22:35 Calm 7.00 Fair CLR 43.2 34.9 73% 30.04 0.0
03 22:15 Calm 7.00 Fair CLR 40.5 35.2 82% 30.04 0.0
03 21:55 Calm 7.00 Fair CLR 45.5 35.1 67% 30.03 0.0
03 21:35 Calm 7.00 Fair CLR 43 34.9 73% 30.03 0.0
03 21:15 Calm 7.00 Fair CLR 45 35.1 68% 30.03 0.0
03 20:55 Calm 7.00 Fair CLR 46.8 34.7 63% 30.02 0.0
03 20:35 Calm 7.00 Fair CLR 50.4 33.8 53% 30.02 0.0
03 20:15 Calm 10.00 Fair CLR 50 32 50% 30.01 0.0
03 19:55 Calm 5.00 Fair CLR 56.1 29.5 63.1 56.1 36% 30 0.0
03 19:35 W 5 5.00 Fair CLR 58.3 27.7 31% 30 0.0
03 19:15 W 7 7.00 Fair CLR 59.9 26.4 28% 30 0.0
03 18:55 NW 5 7.00 Fair CLR 61.2 24.8 25% 30 0.0
03 18:35 W 8 7.00 Fair CLR 61.7 24.8 24% 30 0.0
03 18:15 W 10 7.00 Fair CLR 62.4 26.1 25% 30 0.0
03 17:55 W 9 7.00 Fair CLR 62.2 25.5 25% 30 0.0
03 17:35 W 7 G 16 7.00 Fair CLR 62.6 25.7 25% 30 0.0
03 17:15 W 13 7.00 Fair CLR 62.8 26.6 25% 30 0.0
03 16:55 W 10 7.00 Fair CLR 62.6 26.6 25% 30 0.0
03 16:35 W 12 7.00 Fair CLR 63 27.3 26% 30 0.0
03 16:15 W 8 G 16 10.00 Fair CLR 62.2 25.9 25% 30 0.0
03 15:55 W 8 G 18 10.00 Fair CLR 62.4 26.1 25% 30.01 0.0
03 15:35 W 13 G 17 7.00 Fair CLR 61.3 26.2 26% 30.02 0.0
03 14:55 W 14 G 18 10.00 Fair CLR 61.9 28 28% 30.03 0.0
03 14:35 W 13 G 21 7.00 Fair CLR 60.4 26.4 27% 30.04 0.0
03 14:15 W 13 G 23 7.00 Fair CLR 60.3 26.6 28% 30.04 0.0
03 13:55 W 14 G 17 10.00 Fair CLR 60.3 28 60.3 47.3 29% 30.04 0.0
03 13:35 NW 10 G 31 7.00 Partly Cloudy SCT070 59.7 27.9 30% 30.05 0.0
03 13:15 W 17 G 22 10.00 Partly Cloudy SCT070 58.1 28 32% 30.05 0.0
03 12:55 NW 9 10.00 Fair CLR 56.3 26.2 31% 30.06 0.0
03 12:35 NW 12 7.00 Fair CLR 57.4 27.9 32% 30.07 0.0
03 12:15 W 5 G 23 10.00 Fair CLR 55.6 25.2 31% 30.07 0.0
03 11:55 NW 10 G 17 7.00 Partly Cloudy SCT060 55.2 24.6 31% 30.07 0.0
03 11:35 NW 13 G 18 7.00 Partly Cloudy SCT060 55.4 26.4 33% 30.08 0.0
03 11:15 N 8 G 20 7.00 Partly Cloudy SCT060 54.9 25 31% 30.07 0.0
03 10:55 N 6 7.00 Partly Cloudy SCT060 54 25 33% 30.07 0.0
03 10:35 NW 10 G 17 10.00 Fair CLR 53.1 22.8 31% 30.07 0.0
03 10:15 NW 13 G 22 7.00 Fair CLR 52.7 23.5 32% 30.07 0.0
03 09:55 NW 10 G 21 10.00 Fair CLR 53.1 27.3 37% 30.07 0.0
03 09:35 NW 9 G 18 7.00 Fair CLR 52 27.5 39% 30.07 0.0
03 09:15 NW 8 G 20 7.00 Fair CLR 50.5 28.2 42% 30.07 0.0
03 08:55 N 6 7.00 Fair CLR 50 29.7 46% 48 30.07 0.0
03 08:35 NW 10 7.00 Fair CLR 48.4 29.3 48% 44 30.07 0.0
03 08:15 NW 9 G 16 7.00 Fair CLR 48 30.7 51% 44 30.06 0.0
03 07:55 NW 8 7.00 Fair CLR 47.3 31.1 49.5 45.1 53% 44 30.05 0.0
03 07:35 N 5 7.00 Fair CLR 46.6 30.9 55% 45 30.05 0.0
03 07:15 N 6 7.00 Fair CLR 45.9 31.1 56% 43 30.05 0.0
03 06:55 NW 6 5.00 Fair CLR 45.5 31.1 57% 43 30.04 0.0
03 06:35 N 8 7.00 Fair CLR 45.3 30.9 57% 42 30.02 0.0
03 06:15 NW 6 7.00 Partly Cloudy SCT070 SCT085 46 30.9 56% 44 30.01 0.0
03 05:55 NW 8 7.00 Overcast BKN070 OVC085 47.3 31.8 55% 44 29.99 0.0
03 05:35 N 8 7.00 Mostly Cloudy SCT080 BKN095 47.5 31.6 54% 44 29.98 0.0
03 05:15 NW 3 7.00 Overcast BKN080 OVC095 48.2 32 54% 29.98 0.0
03 04:55 NW 3 7.00 Overcast BKN080 OVC095 48.4 31.5 52% 29.97 0.0
03 04:35 N 6 7.00 Overcast SCT080 OVC095 48.7 30.2 49% 47 29.97 0.0
03 04:15 N 6 7.00 Overcast SCT080 OVC095 49.1 31.3 50% 47 29.96 0.0
03 03:55 N 3 10.00 Overcast SCT080 OVC095 49.3 33.1 54% 29.96 0.0
03 03:35 N 3 7.00 Overcast OVC095 49.3 33.4 55% 29.95 0.0
03 03:15 N 5 10.00 Overcast OVC095 49.1 35.2 59% 48 29.94 0.0
03 02:55 Calm 7.00 Overcast BKN085 OVC100 49.3 36.7 62% 29.93 0.0
03 02:35 Calm 7.00 Overcast BKN085 OVC100 49.3 37.4 64% 29.93 0.0
03 02:15 N 3 7.00 Overcast OVC085 49.3 37.8 65% 29.92 0.0
03 01:55 N 3 10.00 Overcast OVC085 49.3 40.1 52.3 42.8 71% 29.93 0.0
03 01:35 Calm 10.00 Overcast OVC085 48.4 42.1 79% 29.92 0.0
03 01:15 Calm 10.00 Overcast OVC085 48.6 41 75% 29.93 0.0
03 00:55 Calm 7.00 Overcast OVC085 45.9 43.7 92% 29.93 0.0
03 00:35 Calm 7.00 Overcast OVC085 44.4 42.4 93% 29.93 0.0
03 00:15 Calm 10.00 Overcast OVC085 43.7 41.9 93% 29.93 0.0
02 23:55 Calm 7.00 Mostly Cloudy BKN085 BKN100 43.5 41.2 92% 29.92 0.0
02 23:35 Calm 7.00 Mostly Cloudy SCT080 BKN100 43.7 41 90% 29.92 0.0
02 23:15 Calm 7.00 Mostly Cloudy BKN100 43.7 41.7 93% 29.92 0.0
02 22:55 Calm 7.00 Partly Cloudy SCT100 43.9 41.4 91% 29.93 0.0
02 22:35 Calm 7.00 Fair CLR 45.3 42.1 88% 29.92 0.0
02 22:15 Calm 7.00 Fair CLR 45.9 42.4 88% 29.92 0.0
02 21:55 Calm 7.00 Fair CLR 47.1 41.9 82% 29.92 0.0
02 21:35 Calm 7.00 Partly Cloudy SCT120 46.9 41.4 81% 29.92 0.0
02 21:15 Calm 7.00 Fair CLR 47.8 40.6 76% 29.92 0.0
02 20:55 Calm 7.00 Fair CLR 49.5 41 73% 29.91 0.0
02 20:35 Calm 10.00 Fair CLR 50.5 41 70% 29.9 0.0
02 20:15 E 3 7.00 Fair CLR 52.2 39.9 63% 29.9 0.0
02 19:55 Calm 7.00 Partly Cloudy SCT120 52.5 41 60.4 52.5 65% 29.89 0.0
02 19:35 Calm 5.00 Partly Cloudy SCT120 53.6 40.5 61% 29.89 0.0
02 19:15 Calm 7.00 Fair CLR 54.9 38.7 55% 29.88 0.0
02 18:55 Calm 7.00 Fair CLR 55.8 38.3 52% 29.88 0.0
02 18:35 Calm 5.00 Fair CLR 56.5 37.2 49% 29.89 0.0
02 18:15 Calm 7.00 Partly Cloudy SCT060 SCT080 56.5 35.2 45% 29.88 0.0
02 17:55 E 6 7.00 Mostly Cloudy BKN080 56.7 36.1 46% 29.89 0.0
02 17:35 NE 5 5.00 Partly Cloudy SCT080 57.2 36.1 45% 29.88 0.0
02 17:15 NE 5 7.00 Partly Cloudy SCT080 57.6 34.2 41% 29.88 0.0
02 16:55 Calm 7.00 Partly Cloudy SCT080 57.7 33.4 40% 29.88 0.0
02 16:35 N 3 7.00 Fair CLR 58.5 32.2 37% 29.88 0.0
02 16:15 NE 8 7.00 Partly Cloudy SCT075 58.6 32.2 37% 29.88 0.0
02 15:55 NE 5 7.00 Partly Cloudy SCT075 60.4 32.7 35% 29.89 0.0
02 15:35 NW 6 10.00 Fair CLR 59.2 32.2 36% 29.89 0.0
02 15:15 NW 6 7.00 Fair CLR 58.8 32.4 37% 29.9 0.0
02 14:55 NE 7 10.00 Fair CLR 60.3 32.9 36% 29.89 0.0
02 14:35 NE 6 7.00 Partly Cloudy SCT070 58.8 35.1 41% 29.91 0.0
02 14:15 N 6 7.00 Partly Cloudy SCT120 57.2 34.3 42% 29.92 0.0
02 13:55 N 5 7.00 Mostly Cloudy SCT065 BKN120 56.3 34.7 57 51.8 44% 29.92 0.0
02 13:35 Calm 7.00 Mostly Cloudy BKN065 BKN100 56.1 35.4 46% 29.94 0.0
02 13:15 N 3 7.00 Mostly Cloudy BKN065 BKN100 56.5 35.2 45% 29.95 0.0
02 12:55 NE 6 7.00 Overcast OVC065 56.1 34.5 44% 29.94 0.0
02 12:35 N 3 7.00 Overcast OVC065 55.6 34.5 45% 29.95 0.0
02 12:15 N 7 7.00 Overcast OVC065 55.9 34.3 44% 29.95 0.0
02 11:55 N 3 7.00 Overcast OVC065 55.4 35.4 47% 29.95 0.0
02 11:35 NE 6 7.00 Overcast OVC065 55.9 36.7 49% 29.95 0.0
02 11:15 N 6 7.00 Overcast OVC065 55.6 37.2 50% 29.96 0.0
02 10:55 N 5 7.00 Overcast OVC065 55.4 37.2 51% 29.96 0.0
02 10:35 N 10 7.00 Overcast OVC065 55.8 38.8 53% 29.95 0.0
02 10:15 N 5 7.00 Mostly Cloudy BKN065 55.4 39.9 56% 29.95 0.0
02 09:55 N 6 7.00 Partly Cloudy SCT110 54.7 39.2 56% 29.94 0.0
02 09:35 N 5 7.00 Partly Cloudy SCT110 54.7 39.9 58% 29.94 0.0
02 09:15 N 7 5.00 Mostly Cloudy BKN100 54 40.1 60% 29.94 0.0
02 08:55 N 6 7.00 Partly Cloudy SCT110 53.4 41.7 65% 29.94 0.0
02 08:35 NE 5 7.00 Fair CLR 52.3 43.7 73% 29.94 0.0
02 08:15 NE 5 7.00 Fair CLR 52 43.9 74% 29.94 0.0
02 07:55 NE 6 7.00 Fair CLR 51.8 43.9 53.8 47.8 75% 29.94 0.0
02 07:35 NE 3 5.00 Fair CLR 51.8 44.6 77% 29.94 0.0
02 07:15 Calm 7.00 Fair CLR 51.3 45 79% 29.94 0.0
02 06:55 Calm 5.00 Fair CLR 50.5 45.5 83% 29.93 0.0
02 06:35 Calm 5.00 Fair CLR 50 45.7 85% 29.92 0.0
02 06:15 Calm 7.00 Fair CLR 49.1 46.8 92% 29.92 0.0
02 05:55 Calm 7.00 Fair CLR 49.5 47.3 92% 29.92 0.0
02 05:35 Calm 10.00 Fair CLR 49.8 47.3 91% 29.92 0.0
02 05:15 Calm 7.00 Fair CLR 48.4 46.8 94% 29.91 0.0
02 04:55 Calm 7.00 Fair CLR 48.2 46.6 94% 29.91 0.0
02 04:35 Calm 7.00 Fair CLR 49.8 46.9 90% 29.91 0.0
02 04:15 Calm 7.00 Fair CLR 49.6 45.9 87% 29.91 0.0
02 03:55 Calm 7.00 Fair CLR 51.8 46.8 83% 29.91 0.0
02 03:35 Calm 10.00 Fair CLR 52.7 47.3 82% 29.91 0.0
02 03:15 Calm 7.00 Fair CLR 52.7 47.7 83% 29.9 0.0
02 02:55 W 5 7.00 Fair CLR 52.5 47.8 84% 29.9 0.0
02 02:35 SW 3 7.00 Fair CLR 53.1 47.3 81% 29.89 0.0
02 02:15 SW 3 7.00 Fair CLR 53.6 47.3 79% 29.89 0.0
02 01:55 SW 3 7.00 Fair CLR 53.4 47.1 56.3 49.5 79% 29.91 0.0
02 01:35 SW 5 10.00 Fair CLR 53.8 46.9 78% 29.91 0.0
02 01:15 SW 6 7.00 Fair CLR 54.3 47.1 77% 29.92 0.0
02 00:55 SW 6 7.00 Fair CLR 54.7 47.1 76% 29.92 0.0
02 00:35 SW 6 7.00 Fair CLR 54.9 47.3 76% 29.93 0.0
02 00:15 SW 6 7.00 Fair CLR 55.4 47.3 74% 29.93 0.0
01 23:55 SW 5 7.00 Fair CLR 55.4 47.3 74% 29.93 0.0
01 23:35 S 7 7.00 Fair CLR 55.4 46.8 73% 29.93 0.0
01 23:15 S 8 7.00 Fair CLR 55.6 46.4 71% 29.92 0.0
01 22:55 S 5 7.00 Fair CLR 55.4 46 71% 29.91 0.0
01 22:35 S 5 7.00 Fair CLR 55.6 46.4 71% 29.92 0.0
01 22:15 SE 3 7.00 Fair CLR 50.5 44.6 80% 29.91 0.0
01 21:55 SE 5 10.00 Fair CLR 50 43.5 79% 49 29.91 0.0
01 21:35 SE 3 7.00 Fair CLR 49.8 42.4 76% 29.92 0.0
01 21:15 SE 3 7.00 Fair CLR 50.2 41.9 73% 29.91 0.0
01 20:55 SE 6 10.00 Fair CLR 52.7 41.9 67% 29.9 0.0
01 20:35 SE 6 10.00 Fair CLR 53.8 41.9 64% 29.89 0.0
01 20:15 SE 8 10.00 Fair CLR 55.2 41.9 61% 29.89 0.0
01 19:55 SE 8 5.00 Fair CLR 56.3 42.4 66.9 56.3 60% 29.89 0.0
01 19:35 SE 9 7.00 Fair CLR 58.3 42.8 57% 29.89 0.0
01 19:15 SE 9 7.00 Fair CLR 60.1 41.7 51% 29.89 0.0
01 18:55 SE 10 5.00 Fair CLR 61.7 39.9 45% 29.89 0.0
01 18:35 S 15 7.00 Fair CLR 62.8 43.7 50% 29.89 0.0
01 18:15 S 10 7.00 Fair CLR 64.6 41.5 43% 29.89 0.0
01 17:55 S 8 7.00 Fair CLR 65.5 38.1 37% 29.89 0.0
01 17:35 S 10 7.00 Fair CLR 65.7 37.6 36% 29.89 0.0
01 17:15 S 10 10.00 Fair CLR 66.2 36.9 34% 29.89 0.0
01 16:55 S 10 7.00 Fair CLR 65.7 37.6 36% 29.9 0.0
01 16:35 S 10 10.00 Fair CLR 66.2 37 34% 29.91 0.0
01 16:15 S 8 10.00 Fair CLR 66.4 35.4 32% 29.92 0.0
01 15:55 SE 9 10.00 Fair CLR 64.4 37.6 37% 29.92 0.0
Date Time (edt) Wind (mph) Vis. (mi.) Weather Sky Cond. Air Dwpt Max. Min. Relative Humidity Wind Chill (°F) Heat Index (°F) altimeter (in) sea level (mb) 1 hr 3 hr 6 hr
6 hour
Temperature (ºF) Pressure Precipitation (in)